createdAt,value
2022-09-15T00:02:03.322Z,100.00
2022-09-15T00:05:05.550Z,100.00
2022-09-15T00:08:07.439Z,100.00
2022-09-15T00:11:18.936Z,100.00
2022-09-15T00:14:20.908Z,100.00
2022-09-15T00:17:22.878Z,100.00
2022-09-15T00:20:24.604Z,100.00
2022-09-15T00:23:26.446Z,100.00
2022-09-15T00:26:29.831Z,100.00
2022-09-15T00:29:36.040Z,100.00
2022-09-15T00:32:37.870Z,100.00
2022-09-15T00:35:41.164Z,100.00
2022-09-15T00:38:43.426Z,100.00
2022-09-15T00:41:45.126Z,100.00
2022-09-15T00:44:51.570Z,100.00
2022-09-15T00:47:53.687Z,100.00
2022-09-15T00:50:58.337Z,100.00
2022-09-15T00:54:03.325Z,100.00
2022-09-15T00:57:22.205Z,100.00
2022-09-15T01:00:27.625Z,100.00
2022-09-15T01:03:33.142Z,100.00
2022-09-15T01:06:47.396Z,100.00
2022-09-15T01:10:00.725Z,100.00
2022-09-15T01:13:05.677Z,100.00
2022-09-15T01:16:17.738Z,100.00
2022-09-15T01:20:00.103Z,100.00
2022-09-15T01:23:20.531Z,100.00
2022-09-15T01:27:24.022Z,100.00
2022-09-15T01:30:35.718Z,100.00
2022-09-15T01:33:49.417Z,100.00
2022-09-15T01:36:57.441Z,100.00
2022-09-15T01:40:01.907Z,100.00
2022-09-15T01:43:06.566Z,100.00
2022-09-15T01:46:09.430Z,100.00
2022-09-15T01:49:15.718Z,100.00
2022-09-15T01:52:21.020Z,100.00
2022-09-15T01:55:29.662Z,100.00
2022-09-15T01:58:33.012Z,100.00
2022-09-15T02:01:49.722Z,100.00
2022-09-15T02:05:06.523Z,100.00
2022-09-15T02:08:31.750Z,100.00
2022-09-15T02:11:36.689Z,100.00
2022-09-15T02:14:56.321Z,100.00
2022-09-15T02:17:59.221Z,100.00
2022-09-15T02:21:10.739Z,100.00
2022-09-15T02:24:19.696Z,100.00
2022-09-15T02:27:25.143Z,100.00
2022-09-15T02:30:29.969Z,100.00
2022-09-15T02:33:44.363Z,100.00
2022-09-15T02:36:47.627Z,100.00
2022-09-15T02:40:00.220Z,100.00
2022-09-15T02:43:03.573Z,100.00
2022-09-15T02:46:05.449Z,100.00
2022-09-15T02:49:07.729Z,100.00
2022-09-15T02:52:09.482Z,100.00
2022-09-15T02:55:11.289Z,100.00
2022-09-15T02:58:13.021Z,100.00
2022-09-15T03:01:15.939Z,100.00
2022-09-15T03:04:17.971Z,100.00
2022-09-15T03:07:20.223Z,100.00
2022-09-15T03:10:23.907Z,100.00
2022-09-15T03:13:25.583Z,100.00
2022-09-15T03:16:29.038Z,100.00
2022-09-15T03:19:31.279Z,100.00
2022-09-15T03:22:33.399Z,100.00
2022-09-15T03:25:35.360Z,100.00
2022-09-15T03:28:38.363Z,100.00
2022-09-15T03:31:40.135Z,100.00
2022-09-15T03:34:42.248Z,100.00
2022-09-15T03:37:44.073Z,100.00
2022-09-15T03:41:00.489Z,100.00
2022-09-15T03:44:02.437Z,100.00
2022-09-15T03:47:04.307Z,100.00
2022-09-15T03:50:06.880Z,100.00
2022-09-15T03:53:08.601Z,100.00
2022-09-15T03:56:26.395Z,100.00
2022-09-15T03:59:28.097Z,100.00
2022-09-15T04:02:29.844Z,100.00
2022-09-15T04:05:31.551Z,100.00
2022-09-15T04:08:33.303Z,100.00
2022-09-15T04:11:35.065Z,100.00
2022-09-15T04:14:36.775Z,100.00
2022-09-15T04:17:38.469Z,100.00
2022-09-15T04:20:40.591Z,100.00
2022-09-15T04:23:43.461Z,100.00
2022-09-15T04:26:45.215Z,100.00
2022-09-15T04:29:51.285Z,100.00
2022-09-15T04:32:53.973Z,100.00
2022-09-15T04:36:08.131Z,100.00
2022-09-15T04:39:09.936Z,100.00
2022-09-15T04:42:11.858Z,100.00
2022-09-15T04:45:13.629Z,100.00
2022-09-15T04:48:15.385Z,100.00
2022-09-15T04:51:20.652Z,100.00
2022-09-15T04:54:22.461Z,100.00
2022-09-15T04:57:25.391Z,100.00
2022-09-15T05:00:27.109Z,100.00
2022-09-15T05:03:29.054Z,100.00
2022-09-15T05:06:30.973Z,100.00
2022-09-15T05:09:32.765Z,100.00
2022-09-15T05:12:34.690Z,100.00
2022-09-15T05:15:36.561Z,100.00
2022-09-15T05:18:40.207Z,100.00
2022-09-15T05:21:41.975Z,100.00
2022-09-15T05:24:43.698Z,100.00
2022-09-15T05:27:45.475Z,100.00
2022-09-15T05:30:47.313Z,100.00
2022-09-15T05:33:50.768Z,100.00
2022-09-15T05:36:52.450Z,100.00
2022-09-15T05:39:54.276Z,100.00
2022-09-15T05:42:56.004Z,100.00
2022-09-15T05:45:57.739Z,100.00
2022-09-15T05:48:59.587Z,100.00
2022-09-15T05:52:01.469Z,100.00
2022-09-15T05:55:03.601Z,100.00
2022-09-15T05:58:05.319Z,100.00
2022-09-15T06:01:13.348Z,100.00
2022-09-15T06:04:15.073Z,100.00
2022-09-15T06:07:16.776Z,100.00
2022-09-15T06:10:18.544Z,100.00
2022-09-15T06:13:20.354Z,100.00
2022-09-15T06:16:24.014Z,100.00
2022-09-15T06:19:25.815Z,100.00
2022-09-15T06:22:28.417Z,100.00
2022-09-15T06:25:30.176Z,100.00
2022-09-15T06:28:32.364Z,100.00
2022-09-15T06:31:34.748Z,100.00
2022-09-15T06:34:39.293Z,100.00
2022-09-15T06:37:41.016Z,100.00
2022-09-15T06:40:42.869Z,100.00
2022-09-15T06:43:45.357Z,100.00
2022-09-15T06:46:47.756Z,100.00
2022-09-15T06:49:49.562Z,100.00
2022-09-15T06:52:51.273Z,100.00
2022-09-15T06:55:53.045Z,100.00
2022-09-15T06:58:56.162Z,100.00
2022-09-15T07:02:02.704Z,100.00
2022-09-15T07:05:06.780Z,100.00
2022-09-15T07:08:08.515Z,100.00
2022-09-15T07:11:10.761Z,100.00
2022-09-15T07:14:12.654Z,100.00
2022-09-15T07:17:14.350Z,100.00
2022-09-15T07:20:16.240Z,100.00
2022-09-15T07:23:19.315Z,100.00
2022-09-15T07:26:23.893Z,100.00
2022-09-15T07:29:25.775Z,100.00
2022-09-15T07:32:27.535Z,100.00
2022-09-15T07:35:29.290Z,100.00
2022-09-15T07:38:31.178Z,100.00
2022-09-15T07:41:33.376Z,100.00
2022-09-15T07:44:35.100Z,100.00
2022-09-15T07:47:37.423Z,100.00
2022-09-15T07:50:39.186Z,100.00
2022-09-15T07:53:41.510Z,100.00
2022-09-15T07:56:43.594Z,100.00
2022-09-15T07:59:45.272Z,100.00
2022-09-15T08:02:47.279Z,100.00
2022-09-15T08:05:48.998Z,100.00
2022-09-15T08:08:55.052Z,100.00
2022-09-15T08:11:58.196Z,100.00
2022-09-15T08:14:59.952Z,100.00
2022-09-15T08:18:02.412Z,100.00
2022-09-15T08:21:09.518Z,100.00
2022-09-15T08:24:11.243Z,100.00
2022-09-15T08:27:12.940Z,100.00
2022-09-15T08:30:14.686Z,100.00
2022-09-15T08:33:16.960Z,100.00
2022-09-15T08:36:19.153Z,100.00
2022-09-15T08:39:21.042Z,99.75
2022-09-15T08:42:29.269Z,99.66
2022-09-15T08:45:44.542Z,99.76
2022-09-15T08:48:53.028Z,98.08
2022-09-15T08:51:58.196Z,96.38
2022-09-15T08:55:13.224Z,90.18
2022-09-15T08:58:19.315Z,87.80
2022-09-15T09:01:32.766Z,85.92
2022-09-15T09:04:50.614Z,82.48
2022-09-15T09:08:46.419Z,80.04
2022-09-15T09:12:03.299Z,78.45
2022-09-15T09:15:20.040Z,70.32
2022-09-15T09:18:52.601Z,76.54
2022-09-15T09:22:01.222Z,78.19
2022-09-15T09:25:21.178Z,74.75
2022-09-15T09:28:32.472Z,81.61
2022-09-15T09:31:36.476Z,82.72
2022-09-15T09:34:45.648Z,83.80
2022-09-15T09:37:47.879Z,81.54
2022-09-15T09:40:49.888Z,82.62
2022-09-15T09:43:54.492Z,79.42
2022-09-15T09:46:56.162Z,79.27
2022-09-15T09:49:58.221Z,77.76
2022-09-15T09:53:00.188Z,77.83
2022-09-15T09:56:18.572Z,82.00
2022-09-15T09:59:50.582Z,84.13
2022-09-15T10:02:52.673Z,83.71
2022-09-15T10:06:24.661Z,84.38
2022-09-15T10:09:31.174Z,80.65
2022-09-15T10:12:40.925Z,81.93
2022-09-15T10:15:43.427Z,80.78
2022-09-15T10:18:49.884Z,82.04
2022-09-15T10:21:54.610Z,82.34
2022-09-15T10:24:57.363Z,79.64
2022-09-15T10:28:13.234Z,77.29
2022-09-15T10:31:31.575Z,78.87
2022-09-15T10:34:33.348Z,79.62
2022-09-15T10:37:53.638Z,81.28
2022-09-15T10:41:13.849Z,81.55
2022-09-15T10:44:18.158Z,79.57
2022-09-15T10:47:43.844Z,75.83
2022-09-15T10:51:10.223Z,75.76
2022-09-15T10:54:31.774Z,75.69
2022-09-15T10:57:42.307Z,75.78
2022-09-15T11:01:23.062Z,71.41
2022-09-15T11:04:30.929Z,69.94
2022-09-15T11:08:01.892Z,69.41
2022-09-15T11:11:32.212Z,67.44
2022-09-15T11:14:44.529Z,64.29
2022-09-15T11:18:14.151Z,62.21
2022-09-15T11:21:21.760Z,61.84
2022-09-15T11:24:29.845Z,64.16
2022-09-15T11:27:41.034Z,59.08
2022-09-15T11:31:01.079Z,63.55
2022-09-15T11:34:33.203Z,63.15
2022-09-15T11:37:43.401Z,64.36
2022-09-15T11:41:11.541Z,66.67
2022-09-15T11:44:22.940Z,68.12
2022-09-15T11:47:38.703Z,69.76
2022-09-15T11:50:45.739Z,71.23
2022-09-15T11:53:55.758Z,75.98
2022-09-15T11:56:59.620Z,79.28
2022-09-15T12:00:10.608Z,76.93
2022-09-15T12:03:37.841Z,78.40
2022-09-15T12:10:33.927Z,81.46
2022-09-15T12:13:36.814Z,81.38
2022-09-15T12:16:38.811Z,84.58
2022-09-15T12:20:00.290Z,85.87
2022-09-15T12:23:21.032Z,86.14
2022-09-15T12:26:25.178Z,84.70
2022-09-15T12:29:26.924Z,83.12
2022-09-15T12:32:33.245Z,87.32
2022-09-15T12:35:35.028Z,85.14
2022-09-15T12:38:36.721Z,80.34
2022-09-15T12:41:47.502Z,77.23
2022-09-15T12:45:13.285Z,80.05
2022-09-15T12:48:21.452Z,79.60
2022-09-15T12:51:28.250Z,78.15
2022-09-15T12:54:33.141Z,73.26
2022-09-15T12:57:37.034Z,68.98
2022-09-15T13:00:54.844Z,64.80
2022-09-15T13:04:03.392Z,66.18
2022-09-15T13:07:18.469Z,66.63
2022-09-15T13:10:33.308Z,60.52
2022-09-15T13:13:39.971Z,63.48
2022-09-15T13:16:43.772Z,60.76
2022-09-15T13:19:52.847Z,63.33
2022-09-15T13:22:58.721Z,59.06
2022-09-15T13:26:01.851Z,66.59
2022-09-15T13:29:06.367Z,66.37
2022-09-15T13:32:33.319Z,63.54
2022-09-15T13:36:00.440Z,56.50
2022-09-15T13:39:23.280Z,56.93
2022-09-15T13:42:29.722Z,60.49
2022-09-15T13:46:13.696Z,62.73
2022-09-15T13:49:24.564Z,65.69
2022-09-15T13:52:38.468Z,65.90
2022-09-15T13:55:43.279Z,62.10
2022-09-15T13:59:07.281Z,56.82
2022-09-15T14:02:08.955Z,51.28
2022-09-15T14:05:12.152Z,48.06
2022-09-15T14:08:24.820Z,47.72
2022-09-15T14:11:32.383Z,48.44
2022-09-15T14:14:42.524Z,49.87
2022-09-15T14:17:45.227Z,48.16
2022-09-15T14:20:58.418Z,49.45
2022-09-15T14:24:17.391Z,49.82
2022-09-15T14:27:22.509Z,50.27
2022-09-15T14:30:29.594Z,48.95
2022-09-15T14:33:40.910Z,47.69
2022-09-15T14:36:43.176Z,48.62
2022-09-15T14:39:54.744Z,49.77
2022-09-15T14:42:57.182Z,52.06
2022-09-15T14:46:38.026Z,50.92
2022-09-15T14:49:39.706Z,50.41
2022-09-15T14:52:46.552Z,52.29
2022-09-15T14:56:08.280Z,50.97
2022-09-15T14:59:26.033Z,52.17
2022-09-15T15:02:52.555Z,53.47
2022-09-15T15:06:27.669Z,53.69
2022-09-15T15:09:41.445Z,54.78
2022-09-15T15:12:48.527Z,57.33
2022-09-15T15:15:50.808Z,57.92
2022-09-15T15:18:53.466Z,58.77
2022-09-15T15:22:07.379Z,61.39
2022-09-15T15:25:24.601Z,59.16
2022-09-15T15:28:30.977Z,64.38
2022-09-15T15:31:32.849Z,70.32
2022-09-15T15:34:34.782Z,71.72
2022-09-15T15:37:36.975Z,71.68
2022-09-15T15:40:40.807Z,70.67
2022-09-15T15:43:55.221Z,75.91
2022-09-15T15:47:02.945Z,75.60
2022-09-15T15:50:19.106Z,70.99
2022-09-15T15:53:20.757Z,68.83
2022-09-15T15:56:26.090Z,68.81
2022-09-15T15:59:28.227Z,69.55
2022-09-15T16:02:30.543Z,68.72
2022-09-15T16:05:33.853Z,68.90
2022-09-15T16:08:39.837Z,68.22
2022-09-15T16:11:43.095Z,67.21
2022-09-15T16:14:44.978Z,67.58
2022-09-15T16:17:48.583Z,70.61
2022-09-15T16:20:50.529Z,70.49
2022-09-15T16:23:52.336Z,70.60
2022-09-15T16:26:59.270Z,71.75
2022-09-15T16:30:03.774Z,72.83
2022-09-15T16:33:05.615Z,73.34
2022-09-15T16:36:12.905Z,75.35
2022-09-15T16:39:14.647Z,75.78
2022-09-15T16:42:16.287Z,79.14
2022-09-15T16:45:36.514Z,77.48
2022-09-15T16:48:43.289Z,78.93
2022-09-15T16:51:45.154Z,76.95
2022-09-15T16:54:48.200Z,75.91
2022-09-15T16:57:50.498Z,76.29
2022-09-15T17:00:53.720Z,78.69
2022-09-15T17:03:56.032Z,78.96
2022-09-15T17:06:58.838Z,80.21
2022-09-15T17:10:02.986Z,81.74
2022-09-15T17:13:05.360Z,83.03
2022-09-15T17:16:08.261Z,83.36
2022-09-15T17:19:10.171Z,83.12
2022-09-15T17:22:12.069Z,84.28
2022-09-15T17:25:42.594Z,85.18
2022-09-15T17:28:44.499Z,85.72
2022-09-15T17:31:46.675Z,85.81
2022-09-15T17:34:48.340Z,88.16
2022-09-15T17:37:51.122Z,88.71
2022-09-15T17:40:55.234Z,87.25
2022-09-15T17:43:58.063Z,86.14
2022-09-15T17:47:00.751Z,84.88
2022-09-15T17:50:03.604Z,83.24
2022-09-15T17:53:21.440Z,82.21
2022-09-15T17:56:23.307Z,81.25
2022-09-15T17:59:25.087Z,81.04
2022-09-15T18:02:27.294Z,81.09
2022-09-15T18:05:31.378Z,80.25
2022-09-15T18:08:34.127Z,80.58
2022-09-15T18:11:36.114Z,81.46
2022-09-15T18:14:38.331Z,83.18
2022-09-15T18:17:40.226Z,84.15
2022-09-15T18:20:42.439Z,84.59
2022-09-15T18:23:45.124Z,85.64
2022-09-15T18:26:46.899Z,87.09
2022-09-15T18:29:48.644Z,87.70
2022-09-15T18:32:51.169Z,88.32
2022-09-15T18:35:55.802Z,89.11
2022-09-15T18:38:57.906Z,88.72
2022-09-15T18:41:59.662Z,88.41
2022-09-15T18:45:01.902Z,88.66
2022-09-15T18:48:06.263Z,89.06
2022-09-15T18:51:12.003Z,89.40
2022-09-15T18:54:18.046Z,89.52
2022-09-15T18:57:20.050Z,90.29
2022-09-15T19:00:24.251Z,90.20
2022-09-15T19:03:26.145Z,89.20
2022-09-15T19:06:27.875Z,89.00
2022-09-15T19:09:29.883Z,88.57
2022-09-15T19:12:31.709Z,88.45
2022-09-15T19:15:34.558Z,88.18
2022-09-15T19:18:36.930Z,89.61
2022-09-15T19:21:38.719Z,89.91
2022-09-15T19:24:40.812Z,90.06
2022-09-15T19:27:43.101Z,89.64
2022-09-15T19:30:44.898Z,89.81
2022-09-15T19:33:46.809Z,89.88
2022-09-15T19:36:48.638Z,89.38
2022-09-15T19:39:50.697Z,89.62
2022-09-15T19:42:52.622Z,89.09
2022-09-15T19:45:54.372Z,89.36
2022-09-15T19:48:56.333Z,89.60
2022-09-15T19:51:58.421Z,89.45
2022-09-15T19:55:00.287Z,89.71
2022-09-15T19:58:02.077Z,89.45
2022-09-15T20:01:03.906Z,90.97
2022-09-15T20:04:06.892Z,91.34
2022-09-15T20:07:08.672Z,92.00
2022-09-15T20:10:10.492Z,92.02
2022-09-15T20:13:12.360Z,92.66
2022-09-15T20:16:19.608Z,92.36
2022-09-15T20:19:21.578Z,92.41
2022-09-15T20:22:23.720Z,91.24
2022-09-15T20:25:25.556Z,91.85
2022-09-15T20:28:27.779Z,91.80
2022-09-15T20:31:32.889Z,90.34
2022-09-15T20:34:34.637Z,90.82
2022-09-15T20:37:37.636Z,91.54
2022-09-15T20:40:39.649Z,91.63
2022-09-15T20:43:42.511Z,92.33
2022-09-15T20:46:44.342Z,92.30
2022-09-15T20:49:46.214Z,93.19
2022-09-15T20:52:48.928Z,93.81
2022-09-15T20:55:50.875Z,94.19
2022-09-15T20:58:58.522Z,91.83
2022-09-15T21:02:00.312Z,92.19
2022-09-15T21:05:02.084Z,89.69
2022-09-15T21:08:03.826Z,90.05
2022-09-15T21:11:08.945Z,89.79
2022-09-15T21:14:14.289Z,89.83
2022-09-15T21:17:16.544Z,90.98
2022-09-15T21:20:18.299Z,89.65
2022-09-15T21:23:20.020Z,88.91
2022-09-15T21:26:24.030Z,87.94
2022-09-15T21:29:27.656Z,88.24
2022-09-15T21:32:29.982Z,88.59
2022-09-15T21:35:32.615Z,89.86
2022-09-15T21:38:35.035Z,89.69
2022-09-15T21:41:36.853Z,88.77
2022-09-15T21:44:38.901Z,89.80
2022-09-15T21:47:40.631Z,90.18
2022-09-15T21:50:52.838Z,91.32
2022-09-15T21:53:56.935Z,90.84
2022-09-15T21:56:58.726Z,92.84
2022-09-15T22:00:00.395Z,94.50
2022-09-15T22:03:02.206Z,94.97
2022-09-15T22:06:04.095Z,94.74
2022-09-15T22:09:15.277Z,95.23
2022-09-15T22:12:17.084Z,97.60
2022-09-15T22:15:18.823Z,98.11
2022-09-15T22:18:20.848Z,98.64
2022-09-15T22:21:25.333Z,97.31
2022-09-15T22:24:27.005Z,96.72
2022-09-15T22:27:28.768Z,95.33
2022-09-15T22:30:30.504Z,94.67
2022-09-15T22:33:32.852Z,93.25
2022-09-15T22:36:35.235Z,92.12
2022-09-15T22:39:58.115Z,91.68
2022-09-15T22:42:58.954Z,91.17
2022-09-15T22:46:00.863Z,91.51
2022-09-15T22:49:02.866Z,91.25
2022-09-15T22:52:04.845Z,92.08
2022-09-15T22:55:06.872Z,92.42
2022-09-15T22:58:08.674Z,93.40
2022-09-15T23:01:14.317Z,94.25
2022-09-15T23:04:16.078Z,95.02
2022-09-15T23:07:17.861Z,95.61
2022-09-15T23:10:19.531Z,95.10
2022-09-15T23:13:21.265Z,96.82
2022-09-15T23:16:24.444Z,97.48
2022-09-15T23:19:26.517Z,95.57
2022-09-15T23:22:28.254Z,94.91
2022-09-15T23:25:29.940Z,93.87
2022-09-15T23:28:32.330Z,93.22
2022-09-15T23:31:34.102Z,91.32
2022-09-15T23:34:35.921Z,91.24
2022-09-15T23:37:37.856Z,91.16
2022-09-15T23:40:42.610Z,90.96
2022-09-15T23:43:44.584Z,88.53
2022-09-15T23:46:46.461Z,85.64
2022-09-15T23:49:48.401Z,83.96
2022-09-15T23:52:50.075Z,82.90
2022-09-15T23:55:52.440Z,82.99
2022-09-15T23:58:54.423Z,83.59
